sensor_id;sensor_type;location;lat;lon;timestamp;P1;durP1;ratioP1;P2;durP2;ratioP2
840;SDS011;406;48.566;13.450;2023-07-02T00:02:15;3.30;;;2.60;;
840;SDS011;406;48.566;13.450;2023-07-02T00:04:45;3.23;;;2.63;;
840;SDS011;406;48.566;13.450;2023-07-02T00:07:12;2.80;;;2.23;;
840;SDS011;406;48.566;13.450;2023-07-02T00:09:40;2.77;;;2.23;;
840;SDS011;406;48.566;13.450;2023-07-02T00:12:07;6.87;;;2.47;;
840;SDS011;406;48.566;13.450;2023-07-02T00:14:34;2.10;;;1.70;;
840;SDS011;406;48.566;13.450;2023-07-02T00:17:00;3.73;;;1.63;;
840;SDS011;406;48.566;13.450;2023-07-02T00:19:27;7.60;;;2.10;;
840;SDS011;406;48.566;13.450;2023-07-02T00:21:53;1.90;;;1.67;;
840;SDS011;406;48.566;13.450;2023-07-02T00:24:20;2.27;;;1.80;;
840;SDS011;406;48.566;13.450;2023-07-02T00:26:47;2.27;;;1.77;;
840;SDS011;406;48.566;13.450;2023-07-02T00:29:13;4.17;;;2.10;;
840;SDS011;406;48.566;13.450;2023-07-02T00:31:40;2.80;;;1.63;;
840;SDS011;406;48.566;13.450;2023-07-02T00:34:06;3.23;;;2.20;;
840;SDS011;406;48.566;13.450;2023-07-02T00:36:33;2.90;;;2.10;;
840;SDS011;406;48.566;13.450;2023-07-02T00:38:59;2.37;;;1.83;;
840;SDS011;406;48.566;13.450;2023-07-02T00:41:27;4.53;;;2.10;;
840;SDS011;406;48.566;13.450;2023-07-02T00:43:55;2.80;;;2.20;;
840;SDS011;406;48.566;13.450;2023-07-02T00:46:22;4.80;;;2.53;;
840;SDS011;406;48.566;13.450;2023-07-02T00:48:52;2.63;;;2.07;;
840;SDS011;406;48.566;13.450;2023-07-02T00:51:20;2.53;;;2.30;;
840;SDS011;406;48.566;13.450;2023-07-02T00:53:49;2.80;;;2.23;;
840;SDS011;406;48.566;13.450;2023-07-02T00:56:16;4.43;;;2.50;;
840;SDS011;406;48.566;13.450;2023-07-02T00:58:43;3.27;;;2.00;;
840;SDS011;406;48.566;13.450;2023-07-02T01:01:15;2.73;;;1.97;;
840;SDS011;406;48.566;13.450;2023-07-02T01:06:32;3.30;;;1.93;;
840;SDS011;406;48.566;13.450;2023-07-02T01:09:02;3.67;;;2.40;;
840;SDS011;406;48.566;13.450;2023-07-02T01:11:30;3.00;;;2.00;;
840;SDS011;406;48.566;13.450;2023-07-02T01:14:02;3.83;;;2.20;;
840;SDS011;406;48.566;13.450;2023-07-02T01:16:30;2.30;;;2.10;;
840;SDS011;406;48.566;13.450;2023-07-02T01:19:00;2.70;;;2.43;;
840;SDS011;406;48.566;13.450;2023-07-02T01:21:31;2.20;;;2.00;;
840;SDS011;406;48.566;13.450;2023-07-02T01:23:59;3.03;;;2.73;;
840;SDS011;406;48.566;13.450;2023-07-02T01:26:28;4.90;;;2.83;;
840;SDS011;406;48.566;13.450;2023-07-02T01:28:56;2.83;;;2.60;;
840;SDS011;406;48.566;13.450;2023-07-02T01:31:23;5.93;;;2.80;;
840;SDS011;406;48.566;13.450;2023-07-02T01:33:51;3.40;;;2.83;;
840;SDS011;406;48.566;13.450;2023-07-02T01:36:18;3.20;;;2.60;;
840;SDS011;406;48.566;13.450;2023-07-02T01:38:45;3.20;;;2.90;;
840;SDS011;406;48.566;13.450;2023-07-02T01:41:12;4.47;;;2.90;;
840;SDS011;406;48.566;13.450;2023-07-02T01:43:38;3.30;;;3.00;;
840;SDS011;406;48.566;13.450;2023-07-02T01:46:05;4.00;;;3.60;;
840;SDS011;406;48.566;13.450;2023-07-02T01:48:31;6.23;;;2.97;;
840;SDS011;406;48.566;13.450;2023-07-02T01:50:58;4.60;;;2.53;;
840;SDS011;406;48.566;13.450;2023-07-02T01:53:24;3.77;;;2.90;;
840;SDS011;406;48.566;13.450;2023-07-02T01:55:51;3.73;;;2.60;;
840;SDS011;406;48.566;13.450;2023-07-02T01:58:17;3.83;;;2.43;;
840;SDS011;406;48.566;13.450;2023-07-02T02:00:44;3.37;;;2.50;;
840;SDS011;406;48.566;13.450;2023-07-02T02:03:10;3.80;;;2.77;;
840;SDS011;406;48.566;13.450;2023-07-02T02:05:37;2.67;;;2.47;;
840;SDS011;406;48.566;13.450;2023-07-02T02:08:04;6.37;;;3.17;;
840;SDS011;406;48.566;13.450;2023-07-02T02:10:30;3.10;;;2.60;;
840;SDS011;406;48.566;13.450;2023-07-02T02:12:57;5.10;;;2.90;;
840;SDS011;406;48.566;13.450;2023-07-02T02:15:24;3.27;;;2.97;;
840;SDS011;406;48.566;13.450;2023-07-02T02:17:50;3.90;;;3.50;;
840;SDS011;406;48.566;13.450;2023-07-02T02:20:17;6.70;;;2.90;;
840;SDS011;406;48.566;13.450;2023-07-02T02:22:43;3.27;;;2.77;;
840;SDS011;406;48.566;13.450;2023-07-02T02:25:10;3.60;;;3.27;;
840;SDS011;406;48.566;13.450;2023-07-02T02:27:36;4.63;;;3.50;;
840;SDS011;406;48.566;13.450;2023-07-02T02:30:04;4.50;;;3.30;;
840;SDS011;406;48.566;13.450;2023-07-02T02:32:34;5.40;;;3.53;;
840;SDS011;406;48.566;13.450;2023-07-02T02:35:01;3.20;;;2.90;;
840;SDS011;406;48.566;13.450;2023-07-02T02:37:29;4.20;;;3.03;;
840;SDS011;406;48.566;13.450;2023-07-02T02:39:57;3.60;;;3.27;;
840;SDS011;406;48.566;13.450;2023-07-02T02:42:25;4.37;;;2.73;;
840;SDS011;406;48.566;13.450;2023-07-02T02:44:52;3.00;;;2.80;;
840;SDS011;406;48.566;13.450;2023-07-02T02:47:18;3.90;;;3.33;;
840;SDS011;406;48.566;13.450;2023-07-02T02:49:45;3.70;;;3.30;;
840;SDS011;406;48.566;13.450;2023-07-02T02:52:12;3.13;;;2.83;;
840;SDS011;406;48.566;13.450;2023-07-02T02:54:40;3.30;;;3.00;;
840;SDS011;406;48.566;13.450;2023-07-02T02:57:07;4.80;;;3.20;;
840;SDS011;406;48.566;13.450;2023-07-02T02:59:33;4.13;;;3.53;;
840;SDS011;406;48.566;13.450;2023-07-02T03:02:00;3.87;;;3.10;;
840;SDS011;406;48.566;13.450;2023-07-02T03:04:27;5.33;;;3.03;;
840;SDS011;406;48.566;13.450;2023-07-02T03:06:53;4.70;;;3.47;;
840;SDS011;406;48.566;13.450;2023-07-02T03:09:20;4.40;;;3.43;;
840;SDS011;406;48.566;13.450;2023-07-02T03:11:46;3.93;;;3.60;;
840;SDS011;406;48.566;13.450;2023-07-02T03:14:14;3.40;;;3.10;;
840;SDS011;406;48.566;13.450;2023-07-02T03:16:43;4.07;;;3.63;;
840;SDS011;406;48.566;13.450;2023-07-02T03:19:11;5.07;;;3.60;;
840;SDS011;406;48.566;13.450;2023-07-02T03:21:42;5.30;;;3.77;;
840;SDS011;406;48.566;13.450;2023-07-02T03:24:09;4.07;;;3.40;;
840;SDS011;406;48.566;13.450;2023-07-02T03:26:39;3.97;;;3.30;;
840;SDS011;406;48.566;13.450;2023-07-02T03:29:06;6.10;;;3.20;;
840;SDS011;406;48.566;13.450;2023-07-02T03:31:33;5.77;;;3.30;;
840;SDS011;406;48.566;13.450;2023-07-02T03:34:01;4.10;;;3.40;;
840;SDS011;406;48.566;13.450;2023-07-02T03:36:29;5.37;;;3.07;;
840;SDS011;406;48.566;13.450;2023-07-02T03:38:56;4.70;;;3.70;;
840;SDS011;406;48.566;13.450;2023-07-02T03:41:22;5.50;;;3.97;;
840;SDS011;406;48.566;13.450;2023-07-02T03:43:49;4.63;;;3.50;;
840;SDS011;406;48.566;13.450;2023-07-02T03:46:15;3.87;;;3.47;;
840;SDS011;406;48.566;13.450;2023-07-02T03:48:42;3.60;;;3.20;;
840;SDS011;406;48.566;13.450;2023-07-02T03:51:08;7.30;;;3.80;;
840;SDS011;406;48.566;13.450;2023-07-02T03:53:35;4.77;;;3.80;;
840;SDS011;406;48.566;13.450;2023-07-02T03:56:02;3.87;;;3.57;;
840;SDS011;406;48.566;13.450;2023-07-02T03:58:28;5.40;;;4.00;;
840;SDS011;406;48.566;13.450;2023-07-02T04:00:55;5.30;;;3.93;;
840;SDS011;406;48.566;13.450;2023-07-02T04:03:22;4.10;;;3.63;;
840;SDS011;406;48.566;13.450;2023-07-02T04:05:48;4.13;;;3.13;;
840;SDS011;406;48.566;13.450;2023-07-02T04:08:15;7.53;;;3.80;;
840;SDS011;406;48.566;13.450;2023-07-02T04:10:42;3.67;;;3.33;;
840;SDS011;406;48.566;13.450;2023-07-02T04:13:08;4.00;;;3.10;;
840;SDS011;406;48.566;13.450;2023-07-02T04:15:35;5.77;;;4.87;;
840;SDS011;406;48.566;13.450;2023-07-02T04:18:01;4.63;;;3.57;;
840;SDS011;406;48.566;13.450;2023-07-02T04:20:28;4.50;;;3.83;;
840;SDS011;406;48.566;13.450;2023-07-02T04:22:54;5.83;;;4.07;;
840;SDS011;406;48.566;13.450;2023-07-02T04:25:21;4.97;;;3.33;;
840;SDS011;406;48.566;13.450;2023-07-02T04:28:07;4.50;;;3.77;;
840;SDS011;406;48.566;13.450;2023-07-02T04:30:34;3.83;;;3.43;;
840;SDS011;406;48.566;13.450;2023-07-02T04:33:00;6.53;;;3.57;;
840;SDS011;406;48.566;13.450;2023-07-02T04:35:27;4.03;;;3.63;;
840;SDS011;406;48.566;13.450;2023-07-02T04:37:54;4.40;;;3.90;;
840;SDS011;406;48.566;13.450;2023-07-02T04:40:20;4.03;;;3.40;;
840;SDS011;406;48.566;13.450;2023-07-02T04:42:47;4.53;;;3.03;;
840;SDS011;406;48.566;13.450;2023-07-02T04:45:14;4.20;;;3.80;;
840;SDS011;406;48.566;13.450;2023-07-02T04:47:43;3.47;;;3.17;;
840;SDS011;406;48.566;13.450;2023-07-02T04:50:11;4.30;;;3.90;;
840;SDS011;406;48.566;13.450;2023-07-02T04:52:40;4.37;;;3.60;;
840;SDS011;406;48.566;13.450;2023-07-02T04:55:08;3.93;;;3.47;;
840;SDS011;406;48.566;13.450;2023-07-02T04:57:34;4.43;;;4.03;;
840;SDS011;406;48.566;13.450;2023-07-02T05:00:01;4.20;;;3.40;;
840;SDS011;406;48.566;13.450;2023-07-02T05:02:30;4.50;;;3.63;;
840;SDS011;406;48.566;13.450;2023-07-02T05:04:56;4.00;;;3.67;;
840;SDS011;406;48.566;13.450;2023-07-02T05:07:23;4.43;;;4.03;;
840;SDS011;406;48.566;13.450;2023-07-02T05:09:49;5.20;;;4.27;;
840;SDS011;406;48.566;13.450;2023-07-02T05:12:18;3.93;;;3.50;;
840;SDS011;406;48.566;13.450;2023-07-02T05:14:45;4.10;;;3.70;;
840;SDS011;406;48.566;13.450;2023-07-02T05:17:12;4.00;;;3.60;;
840;SDS011;406;48.566;13.450;2023-07-02T05:19:40;4.60;;;3.97;;
840;SDS011;406;48.566;13.450;2023-07-02T05:22:08;4.90;;;3.73;;
840;SDS011;406;48.566;13.450;2023-07-02T05:24:35;5.60;;;3.83;;
840;SDS011;406;48.566;13.450;2023-07-02T05:27:01;3.90;;;3.20;;
840;SDS011;406;48.566;13.450;2023-07-02T05:29:28;5.00;;;3.27;;
840;SDS011;406;48.566;13.450;2023-07-02T05:31:54;7.07;;;3.50;;
840;SDS011;406;48.566;13.450;2023-07-02T05:34:21;4.20;;;3.50;;
840;SDS011;406;48.566;13.450;2023-07-02T05:36:48;3.73;;;3.20;;
840;SDS011;406;48.566;13.450;2023-07-02T05:39:14;6.83;;;2.87;;
840;SDS011;406;48.566;13.450;2023-07-02T05:41:41;3.07;;;2.77;;
840;SDS011;406;48.566;13.450;2023-07-02T05:44:07;3.63;;;3.13;;
840;SDS011;406;48.566;13.450;2023-07-02T05:46:34;4.13;;;3.20;;
840;SDS011;406;48.566;13.450;2023-07-02T05:49:00;2.83;;;2.47;;
840;SDS011;406;48.566;13.450;2023-07-02T05:51:27;2.97;;;2.50;;
840;SDS011;406;48.566;13.450;2023-07-02T05:53:53;4.13;;;2.70;;
840;SDS011;406;48.566;13.450;2023-07-02T05:56:20;3.13;;;2.83;;
840;SDS011;406;48.566;13.450;2023-07-02T05:58:46;4.40;;;3.00;;
840;SDS011;406;48.566;13.450;2023-07-02T06:01:15;4.10;;;2.93;;
840;SDS011;406;48.566;13.450;2023-07-02T06:03:42;5.37;;;3.27;;
840;SDS011;406;48.566;13.450;2023-07-02T06:06:10;3.20;;;2.70;;
840;SDS011;406;48.566;13.450;2023-07-02T06:08:37;3.40;;;3.10;;
840;SDS011;406;48.566;13.450;2023-07-02T06:11:04;3.53;;;3.10;;
840;SDS011;406;48.566;13.450;2023-07-02T06:13:30;3.03;;;2.73;;
840;SDS011;406;48.566;13.450;2023-07-02T06:15:57;3.50;;;3.00;;
840;SDS011;406;48.566;13.450;2023-07-02T06:18:23;4.13;;;3.20;;
840;SDS011;406;48.566;13.450;2023-07-02T06:20:50;4.50;;;3.20;;
840;SDS011;406;48.566;13.450;2023-07-02T06:23:17;4.17;;;3.60;;
840;SDS011;406;48.566;13.450;2023-07-02T06:25:44;3.67;;;2.80;;
840;SDS011;406;48.566;13.450;2023-07-02T06:28:10;3.37;;;3.07;;
840;SDS011;406;48.566;13.450;2023-07-02T06:30:37;5.60;;;2.90;;
840;SDS011;406;48.566;13.450;2023-07-02T06:33:03;3.77;;;2.60;;
840;SDS011;406;48.566;13.450;2023-07-02T06:35:30;4.37;;;2.70;;
840;SDS011;406;48.566;13.450;2023-07-02T06:37:57;3.10;;;2.80;;
840;SDS011;406;48.566;13.450;2023-07-02T06:40:23;3.03;;;2.40;;
840;SDS011;406;48.566;13.450;2023-07-02T06:42:50;2.93;;;2.60;;
840;SDS011;406;48.566;13.450;2023-07-02T06:45:16;2.80;;;2.50;;
840;SDS011;406;48.566;13.450;2023-07-02T06:47:43;4.23;;;2.40;;
840;SDS011;406;48.566;13.450;2023-07-02T06:50:09;3.50;;;2.60;;
840;SDS011;406;48.566;13.450;2023-07-02T06:52:36;2.90;;;2.60;;
840;SDS011;406;48.566;13.450;2023-07-02T06:55:03;4.40;;;2.37;;
840;SDS011;406;48.566;13.450;2023-07-02T06:57:30;3.60;;;2.40;;
840;SDS011;406;48.566;13.450;2023-07-02T06:59:59;4.20;;;2.77;;
840;SDS011;406;48.566;13.450;2023-07-02T07:02:26;7.13;;;2.80;;
840;SDS011;406;48.566;13.450;2023-07-02T07:04:53;3.03;;;2.50;;
840;SDS011;406;48.566;13.450;2023-07-02T07:07:20;4.90;;;2.60;;
840;SDS011;406;48.566;13.450;2023-07-02T07:09:46;4.53;;;2.67;;
840;SDS011;406;48.566;13.450;2023-07-02T07:12:13;4.40;;;3.03;;
840;SDS011;406;48.566;13.450;2023-07-02T07:14:39;3.23;;;2.10;;
840;SDS011;406;48.566;13.450;2023-07-02T07:17:06;2.77;;;2.53;;
840;SDS011;406;48.566;13.450;2023-07-02T07:19:33;3.97;;;3.03;;
840;SDS011;406;48.566;13.450;2023-07-02T07:22:00;3.10;;;2.50;;
840;SDS011;406;48.566;13.450;2023-07-02T07:24:26;2.90;;;2.10;;
840;SDS011;406;48.566;13.450;2023-07-02T07:26:53;3.23;;;2.67;;
840;SDS011;406;48.566;13.450;2023-07-02T07:29:21;7.50;;;2.40;;
840;SDS011;406;48.566;13.450;2023-07-02T07:31:48;5.27;;;2.93;;
840;SDS011;406;48.566;13.450;2023-07-02T07:34:15;2.87;;;2.40;;
840;SDS011;406;48.566;13.450;2023-07-02T07:36:41;3.93;;;2.73;;
840;SDS011;406;48.566;13.450;2023-07-02T07:39:08;2.63;;;2.43;;
840;SDS011;406;48.566;13.450;2023-07-02T07:41:35;3.07;;;2.63;;
840;SDS011;406;48.566;13.450;2023-07-02T07:44:01;2.67;;;1.90;;
840;SDS011;406;48.566;13.450;2023-07-02T07:46:28;2.70;;;2.07;;
840;SDS011;406;48.566;13.450;2023-07-02T07:48:55;3.63;;;2.70;;
840;SDS011;406;48.566;13.450;2023-07-02T07:51:22;2.43;;;2.00;;
840;SDS011;406;48.566;13.450;2023-07-02T07:53:48;5.50;;;2.30;;
840;SDS011;406;48.566;13.450;2023-07-02T07:56:15;4.60;;;2.47;;
840;SDS011;406;48.566;13.450;2023-07-02T07:58:42;2.90;;;2.07;;
840;SDS011;406;48.566;13.450;2023-07-02T08:01:08;3.53;;;1.77;;
840;SDS011;406;48.566;13.450;2023-07-02T08:03:37;3.40;;;2.37;;
840;SDS011;406;48.566;13.450;2023-07-02T08:06:04;4.00;;;2.60;;
840;SDS011;406;48.566;13.450;2023-07-02T08:08:31;6.00;;;2.37;;
840;SDS011;406;48.566;13.450;2023-07-02T08:10:58;2.40;;;2.00;;
840;SDS011;406;48.566;13.450;2023-07-02T08:13:24;2.77;;;2.17;;
840;SDS011;406;48.566;13.450;2023-07-02T08:15:51;3.50;;;2.50;;
840;SDS011;406;48.566;13.450;2023-07-02T08:18:17;3.70;;;2.87;;
840;SDS011;406;48.566;13.450;2023-07-02T08:20:44;2.30;;;1.77;;
840;SDS011;406;48.566;13.450;2023-07-02T08:23:10;4.43;;;2.40;;
840;SDS011;406;48.566;13.450;2023-07-02T08:25:38;3.40;;;2.43;;
840;SDS011;406;48.566;13.450;2023-07-02T08:28:04;2.43;;;2.00;;
840;SDS011;406;48.566;13.450;2023-07-02T08:30:31;3.90;;;2.43;;
840;SDS011;406;48.566;13.450;2023-07-02T08:32:57;3.67;;;2.30;;
840;SDS011;406;48.566;13.450;2023-07-02T08:35:24;3.23;;;2.30;;
840;SDS011;406;48.566;13.450;2023-07-02T08:37:50;3.50;;;2.83;;
840;SDS011;406;48.566;13.450;2023-07-02T08:40:17;3.50;;;2.70;;
840;SDS011;406;48.566;13.450;2023-07-02T08:42:47;3.33;;;3.00;;
840;SDS011;406;48.566;13.450;2023-07-02T08:45:14;6.73;;;2.97;;
840;SDS011;406;48.566;13.450;2023-07-02T08:47:43;6.47;;;2.73;;
840;SDS011;406;48.566;13.450;2023-07-02T08:50:11;6.07;;;3.17;;
840;SDS011;406;48.566;13.450;2023-07-02T08:52:38;6.50;;;3.43;;
840;SDS011;406;48.566;13.450;2023-07-02T08:55:05;4.97;;;3.83;;
840;SDS011;406;48.566;13.450;2023-07-02T08:57:32;6.10;;;3.67;;
840;SDS011;406;48.566;13.450;2023-07-02T08:59:59;4.77;;;3.87;;
840;SDS011;406;48.566;13.450;2023-07-02T09:02:32;6.10;;;3.57;;
840;SDS011;406;48.566;13.450;2023-07-02T09:05:02;10.97;;;4.70;;
840;SDS011;406;48.566;13.450;2023-07-02T09:07:29;6.50;;;3.40;;
840;SDS011;406;48.566;13.450;2023-07-02T09:09:56;7.90;;;3.53;;
840;SDS011;406;48.566;13.450;2023-07-02T09:14:59;5.10;;;3.77;;
840;SDS011;406;48.566;13.450;2023-07-02T09:17:27;5.27;;;3.23;;
840;SDS011;406;48.566;13.450;2023-07-02T09:19:55;5.80;;;3.67;;
840;SDS011;406;48.566;13.450;2023-07-02T09:22:22;7.10;;;3.30;;
840;SDS011;406;48.566;13.450;2023-07-02T09:24:55;4.43;;;3.20;;
840;SDS011;406;48.566;13.450;2023-07-02T09:27:35;5.93;;;3.87;;
840;SDS011;406;48.566;13.450;2023-07-02T09:30:06;5.40;;;4.10;;
840;SDS011;406;48.566;13.450;2023-07-02T09:32:34;7.03;;;4.47;;
840;SDS011;406;48.566;13.450;2023-07-02T09:35:01;5.50;;;3.73;;
840;SDS011;406;48.566;13.450;2023-07-02T09:37:28;6.80;;;4.43;;
840;SDS011;406;48.566;13.450;2023-07-02T09:39:55;5.07;;;4.10;;
840;SDS011;406;48.566;13.450;2023-07-02T09:42:22;6.00;;;3.87;;
840;SDS011;406;48.566;13.450;2023-07-02T09:44:50;6.03;;;4.00;;
840;SDS011;406;48.566;13.450;2023-07-02T09:47:18;6.70;;;4.27;;
840;SDS011;406;48.566;13.450;2023-07-02T09:49:48;4.60;;;3.80;;
840;SDS011;406;48.566;13.450;2023-07-02T09:52:15;5.43;;;3.80;;
840;SDS011;406;48.566;13.450;2023-07-02T09:54:42;8.57;;;4.43;;
840;SDS011;406;48.566;13.450;2023-07-02T09:57:09;5.80;;;4.40;;
840;SDS011;406;48.566;13.450;2023-07-02T09:59:36;5.67;;;4.30;;
840;SDS011;406;48.566;13.450;2023-07-02T10:02:03;3.97;;;3.50;;
840;SDS011;406;48.566;13.450;2023-07-02T10:04:43;6.03;;;4.27;;
840;SDS011;406;48.566;13.450;2023-07-02T10:07:24;6.43;;;4.60;;
840;SDS011;406;48.566;13.450;2023-07-02T10:09:52;6.73;;;4.77;;
840;SDS011;406;48.566;13.450;2023-07-02T10:12:20;5.77;;;3.70;;
840;SDS011;406;48.566;13.450;2023-07-02T10:14:48;5.00;;;4.00;;
840;SDS011;406;48.566;13.450;2023-07-02T10:19:56;5.47;;;3.57;;
840;SDS011;406;48.566;13.450;2023-07-02T10:22:24;6.13;;;3.90;;
840;SDS011;406;48.566;13.450;2023-07-02T10:24:51;4.57;;;4.17;;
840;SDS011;406;48.566;13.450;2023-07-02T10:27:19;5.33;;;3.00;;
840;SDS011;406;48.566;13.450;2023-07-02T10:29:49;4.93;;;3.60;;
840;SDS011;406;48.566;13.450;2023-07-02T10:32:29;4.27;;;3.53;;
840;SDS011;406;48.566;13.450;2023-07-02T10:34:55;4.07;;;3.43;;
840;SDS011;406;48.566;13.450;2023-07-02T10:37:22;4.80;;;3.73;;
840;SDS011;406;48.566;13.450;2023-07-02T10:39:49;4.53;;;3.60;;
840;SDS011;406;48.566;13.450;2023-07-02T10:42:15;4.80;;;3.70;;
840;SDS011;406;48.566;13.450;2023-07-02T10:44:49;4.73;;;3.90;;
840;SDS011;406;48.566;13.450;2023-07-02T10:47:18;6.33;;;3.97;;
840;SDS011;406;48.566;13.450;2023-07-02T10:49:45;4.17;;;3.60;;
840;SDS011;406;48.566;13.450;2023-07-02T10:52:12;7.00;;;4.27;;
840;SDS011;406;48.566;13.450;2023-07-02T10:54:48;9.93;;;5.10;;
840;SDS011;406;48.566;13.450;2023-07-02T10:57:16;5.50;;;4.40;;
840;SDS011;406;48.566;13.450;2023-07-02T10:59:46;8.30;;;4.17;;
840;SDS011;406;48.566;13.450;2023-07-02T11:02:14;6.20;;;4.07;;
840;SDS011;406;48.566;13.450;2023-07-02T11:04:41;5.00;;;4.27;;
840;SDS011;406;48.566;13.450;2023-07-02T11:07:09;6.03;;;4.20;;
840;SDS011;406;48.566;13.450;2023-07-02T11:09:36;4.27;;;3.63;;
840;SDS011;406;48.566;13.450;2023-07-02T11:12:02;7.73;;;4.27;;
840;SDS011;406;48.566;13.450;2023-07-02T11:14:33;4.20;;;3.40;;
840;SDS011;406;48.566;13.450;2023-07-02T11:17:04;4.07;;;3.67;;
840;SDS011;406;48.566;13.450;2023-07-02T11:19:35;7.23;;;4.03;;
840;SDS011;406;48.566;13.450;2023-07-02T11:22:02;7.03;;;4.50;;
840;SDS011;406;48.566;13.450;2023-07-02T11:24:36;5.77;;;3.83;;
840;SDS011;406;48.566;13.450;2023-07-02T11:27:03;4.30;;;3.00;;
840;SDS011;406;48.566;13.450;2023-07-02T11:29:34;6.33;;;3.80;;
840;SDS011;406;48.566;13.450;2023-07-02T11:32:08;3.57;;;3.20;;
840;SDS011;406;48.566;13.450;2023-07-02T11:34:36;4.17;;;3.70;;
840;SDS011;406;48.566;13.450;2023-07-02T11:37:03;6.33;;;4.37;;
840;SDS011;406;48.566;13.450;2023-07-02T11:39:30;4.27;;;3.40;;
840;SDS011;406;48.566;13.450;2023-07-02T11:41:57;5.90;;;3.97;;
840;SDS011;406;48.566;13.450;2023-07-02T11:44:24;5.33;;;3.83;;
840;SDS011;406;48.566;13.450;2023-07-02T11:46:51;7.93;;;4.50;;
840;SDS011;406;48.566;13.450;2023-07-02T11:49:18;4.63;;;3.43;;
840;SDS011;406;48.566;13.450;2023-07-02T11:51:44;5.77;;;5.17;;
840;SDS011;406;48.566;13.450;2023-07-02T11:54:14;8.87;;;3.80;;
840;SDS011;406;48.566;13.450;2023-07-02T11:56:42;5.77;;;3.80;;
840;SDS011;406;48.566;13.450;2023-07-02T11:59:09;4.67;;;4.17;;
840;SDS011;406;48.566;13.450;2023-07-02T12:01:36;6.23;;;4.10;;
840;SDS011;406;48.566;13.450;2023-07-02T12:04:03;7.20;;;4.43;;
840;SDS011;406;48.566;13.450;2023-07-02T12:06:29;4.67;;;4.13;;
840;SDS011;406;48.566;13.450;2023-07-02T12:08:56;5.67;;;4.60;;
840;SDS011;406;48.566;13.450;2023-07-02T12:11:22;5.43;;;3.97;;
840;SDS011;406;48.566;13.450;2023-07-02T12:13:49;4.90;;;4.20;;
840;SDS011;406;48.566;13.450;2023-07-02T12:16:15;6.43;;;4.17;;
840;SDS011;406;48.566;13.450;2023-07-02T12:18:42;5.87;;;4.93;;
840;SDS011;406;48.566;13.450;2023-07-02T12:21:08;7.20;;;5.20;;
840;SDS011;406;48.566;13.450;2023-07-02T12:23:35;6.73;;;5.10;;
840;SDS011;406;48.566;13.450;2023-07-02T12:26:02;12.23;;;4.80;;
840;SDS011;406;48.566;13.450;2023-07-02T12:28:28;6.50;;;5.20;;
840;SDS011;406;48.566;13.450;2023-07-02T12:30:55;8.23;;;5.37;;
840;SDS011;406;48.566;13.450;2023-07-02T12:33:21;8.00;;;4.40;;
840;SDS011;406;48.566;13.450;2023-07-02T12:35:48;5.50;;;4.03;;
840;SDS011;406;48.566;13.450;2023-07-02T12:38:15;6.53;;;4.30;;
840;SDS011;406;48.566;13.450;2023-07-02T12:40:41;7.90;;;5.00;;
840;SDS011;406;48.566;13.450;2023-07-02T12:43:08;9.60;;;4.40;;
840;SDS011;406;48.566;13.450;2023-07-02T12:45:35;5.63;;;4.13;;
840;SDS011;406;48.566;13.450;2023-07-02T12:48:02;5.07;;;4.30;;
840;SDS011;406;48.566;13.450;2023-07-02T12:50:28;5.40;;;4.50;;
840;SDS011;406;48.566;13.450;2023-07-02T12:52:55;6.10;;;5.50;;
840;SDS011;406;48.566;13.450;2023-07-02T12:55:21;5.40;;;4.20;;
840;SDS011;406;48.566;13.450;2023-07-02T12:57:48;7.30;;;4.73;;
840;SDS011;406;48.566;13.450;2023-07-02T13:00:14;5.13;;;4.13;;
840;SDS011;406;48.566;13.450;2023-07-02T13:02:41;5.90;;;4.70;;
840;SDS011;406;48.566;13.450;2023-07-02T13:05:27;5.70;;;5.00;;
840;SDS011;406;48.566;13.450;2023-07-02T13:07:54;8.10;;;4.57;;
840;SDS011;406;48.566;13.450;2023-07-02T13:10:21;6.60;;;4.87;;
840;SDS011;406;48.566;13.450;2023-07-02T13:12:48;6.27;;;4.33;;
840;SDS011;406;48.566;13.450;2023-07-02T13:15:15;5.80;;;4.80;;
840;SDS011;406;48.566;13.450;2023-07-02T13:17:41;7.30;;;4.90;;
840;SDS011;406;48.566;13.450;2023-07-02T13:20:10;5.80;;;4.63;;
840;SDS011;406;48.566;13.450;2023-07-02T13:22:36;6.10;;;4.80;;
840;SDS011;406;48.566;13.450;2023-07-02T13:25:03;9.83;;;5.67;;
840;SDS011;406;48.566;13.450;2023-07-02T13:27:30;6.10;;;4.77;;
840;SDS011;406;48.566;13.450;2023-07-02T13:29:57;6.60;;;4.83;;
840;SDS011;406;48.566;13.450;2023-07-02T13:32:23;6.93;;;4.60;;
840;SDS011;406;48.566;13.450;2023-07-02T13:34:50;5.57;;;4.73;;
840;SDS011;406;48.566;13.450;2023-07-02T13:37:17;9.80;;;5.30;;
840;SDS011;406;48.566;13.450;2023-07-02T13:39:47;5.30;;;4.80;;
840;SDS011;406;48.566;13.450;2023-07-02T13:42:15;5.67;;;4.60;;
840;SDS011;406;48.566;13.450;2023-07-02T13:44:41;6.27;;;5.00;;
840;SDS011;406;48.566;13.450;2023-07-02T13:47:09;6.77;;;4.93;;
840;SDS011;406;48.566;13.450;2023-07-02T13:49:37;8.17;;;4.67;;
840;SDS011;406;48.566;13.450;2023-07-02T13:52:03;6.60;;;4.77;;
840;SDS011;406;48.566;13.450;2023-07-02T13:54:31;7.50;;;4.53;;
840;SDS011;406;48.566;13.450;2023-07-02T13:57:00;5.27;;;4.77;;
840;SDS011;406;48.566;13.450;2023-07-02T13:59:27;5.63;;;4.20;;
840;SDS011;406;48.566;13.450;2023-07-02T14:01:54;6.10;;;4.03;;
840;SDS011;406;48.566;13.450;2023-07-02T14:04:20;5.93;;;4.37;;
840;SDS011;406;48.566;13.450;2023-07-02T14:06:47;7.00;;;4.50;;
840;SDS011;406;48.566;13.450;2023-07-02T14:09:14;5.33;;;4.53;;
840;SDS011;406;48.566;13.450;2023-07-02T14:11:41;5.93;;;3.70;;
840;SDS011;406;48.566;13.450;2023-07-02T14:14:08;5.70;;;4.30;;
840;SDS011;406;48.566;13.450;2023-07-02T14:16:34;6.00;;;5.03;;
840;SDS011;406;48.566;13.450;2023-07-02T14:19:01;8.30;;;4.23;;
840;SDS011;406;48.566;13.450;2023-07-02T14:21:28;6.10;;;4.77;;
840;SDS011;406;48.566;13.450;2023-07-02T14:23:54;11.37;;;5.00;;
840;SDS011;406;48.566;13.450;2023-07-02T14:26:21;7.37;;;5.40;;
840;SDS011;406;48.566;13.450;2023-07-02T14:28:47;5.13;;;4.37;;
840;SDS011;406;48.566;13.450;2023-07-02T14:31:14;7.87;;;4.80;;
840;SDS011;406;48.566;13.450;2023-07-02T14:33:40;7.23;;;4.27;;
840;SDS011;406;48.566;13.450;2023-07-02T14:36:07;9.07;;;5.43;;
840;SDS011;406;48.566;13.450;2023-07-02T14:38:34;7.40;;;5.37;;
840;SDS011;406;48.566;13.450;2023-07-02T14:41:01;7.17;;;4.97;;
840;SDS011;406;48.566;13.450;2023-07-02T14:43:28;7.87;;;4.93;;
840;SDS011;406;48.566;13.450;2023-07-02T14:45:56;5.70;;;4.53;;
840;SDS011;406;48.566;13.450;2023-07-02T14:48:24;6.30;;;4.53;;
840;SDS011;406;48.566;13.450;2023-07-02T14:50:51;5.53;;;4.20;;
840;SDS011;406;48.566;13.450;2023-07-02T14:53:20;5.83;;;4.90;;
840;SDS011;406;48.566;13.450;2023-07-02T14:55:47;6.77;;;5.20;;
840;SDS011;406;48.566;13.450;2023-07-02T14:58:15;6.63;;;4.60;;
840;SDS011;406;48.566;13.450;2023-07-02T15:00:46;5.70;;;4.80;;
840;SDS011;406;48.566;13.450;2023-07-02T15:03:14;7.80;;;4.20;;
840;SDS011;406;48.566;13.450;2023-07-02T15:05:41;6.27;;;4.50;;
840;SDS011;406;48.566;13.450;2023-07-02T15:08:08;6.03;;;4.00;;
840;SDS011;406;48.566;13.450;2023-07-02T15:10:35;9.20;;;5.03;;
840;SDS011;406;48.566;13.450;2023-07-02T15:13:05;5.73;;;4.57;;
840;SDS011;406;48.566;13.450;2023-07-02T15:15:33;7.27;;;4.40;;
840;SDS011;406;48.566;13.450;2023-07-02T15:18:00;5.87;;;5.03;;
840;SDS011;406;48.566;13.450;2023-07-02T15:20:27;8.50;;;5.97;;
840;SDS011;406;48.566;13.450;2023-07-02T15:22:53;5.53;;;4.53;;
840;SDS011;406;48.566;13.450;2023-07-02T15:25:20;6.70;;;5.00;;
840;SDS011;406;48.566;13.450;2023-07-02T15:27:47;6.57;;;4.63;;
840;SDS011;406;48.566;13.450;2023-07-02T15:30:14;8.97;;;5.40;;
840;SDS011;406;48.566;13.450;2023-07-02T15:32:40;7.30;;;4.97;;
840;SDS011;406;48.566;13.450;2023-07-02T15:35:07;5.63;;;4.40;;
840;SDS011;406;48.566;13.450;2023-07-02T15:37:34;7.70;;;5.77;;
840;SDS011;406;48.566;13.450;2023-07-02T15:40:00;8.73;;;5.00;;